Time;durP1;ratioP1;P1;durP2;ratioP2;P2;SDS_P1;SDS_P2;PMS_P1;PMS_P2;Temp;Humidity;BMP_temperature;BMP_pressure;BME280_temperature;BME280_humidity;BME280_pressure;Samples;Min_cycle;Max_cycle;Signal;HPM_P1;HPM_P2
2023/10/10 00:02:19;;;;;;;15.43;5.70;;;;;;;17.58;56.82;99301.41;7050807;27;20295;-80
2023/10/10 00:05:43;;;;;;;13.60;5.43;;;;;;;17.48;56.94;99295.72;7040249;28;20226;-81
2023/10/10 00:09:05;;;;;;;14.10;5.43;;;;;;;17.49;56.78;99274.72;7050914;28;20251;-82
2023/10/10 00:12:28;;;;;;;12.77;5.43;;;;;;;17.56;56.93;99295.34;7039877;28;20214;-81
2023/10/10 00:15:51;;;;;;;14.80;5.50;;;;;;;17.52;56.75;99291.44;7042615;28;20831;-82
2023/10/10 00:19:21;;;;;;;13.60;5.20;;;;;;;17.40;57.01;99282.44;7046182;28;20733;-82
2023/10/10 00:22:47;;;;;;;16.53;6.13;;;;;;;17.22;57.36;99287.16;7046973;28;20210;-82
2023/10/10 00:26:12;;;;;;;14.57;5.60;;;;;;;17.27;57.34;99279.91;7041669;28;20222;-81
2023/10/10 00:29:34;;;;;;;10.90;4.87;;;;;;;17.21;57.30;99290.94;7046532;28;20292;-82
2023/10/10 00:32:56;;;;;;;13.70;5.60;;;;;;;17.35;57.04;99284.19;7047395;28;20275;-82
2023/10/10 00:36:22;;;;;;;19.30;5.63;;;;;;;17.08;56.62;99232.03;7039321;28;20330;-82
2023/10/10 00:39:52;;;;;;;17.70;5.30;;;;;;;17.45;56.98;99284.47;7041199;28;20323;-82
2023/10/10 00:43:16;;;;;;;15.47;5.67;;;;;;;17.21;57.68;99272.69;7049233;28;20598;-81
2023/10/10 00:46:37;;;;;;;13.93;5.80;;;;;;;17.36;57.16;99270.34;7030086;28;20234;-81
2023/10/10 00:50:00;;;;;;;15.57;5.50;;;;;;;17.10;57.66;99278.94;7030125;28;20694;-82
2023/10/10 00:53:23;;;;;;;11.97;5.17;;;;;;;17.02;57.85;99278.47;7028273;28;20315;-82
2023/10/10 00:56:46;;;;;;;17.17;5.73;;;;;;;16.97;57.85;99265.56;7028832;28;20235;-82
2023/10/10 01:00:10;;;;;;;13.30;5.07;;;;;;;17.03;57.62;99237.38;7034200;28;20202;-82
2023/10/10 01:03:32;;;;;;;15.40;5.27;;;;;;;17.27;57.28;99269.00;7046031;28;20294;-81
2023/10/10 01:06:54;;;;;;;15.63;5.20;;;;;;;17.31;57.01;99266.63;7050711;27;20237;-82
2023/10/10 01:10:17;;;;;;;12.00;5.17;;;;;;;17.04;57.73;99258.09;7049352;28;20673;-82
2023/10/10 01:13:40;;;;;;;14.87;6.23;;;;;;;16.99;57.51;99273.50;7047552;28;20824;-82
2023/10/10 01:17:02;;;;;;;9.10;4.87;;;;;;;16.97;57.83;99259.25;7046101;28;20272;-80
2023/10/10 01:20:34;;;;;;;16.93;5.77;;;;;;;17.12;57.27;99268.66;7046087;28;20214;-82
2023/10/10 01:23:58;;;;;;;10.67;4.80;;;;;;;16.88;57.25;99261.50;7040037;28;20565;-81
2023/10/10 01:27:21;;;;;;;14.90;6.23;;;;;;;16.73;58.33;99263.84;7041485;28;20212;-82
2023/10/10 01:30:57;;;;;;;15.30;5.57;;;;;;;16.55;58.70;99263.06;7045824;27;20206;-82
2023/10/10 01:34:31;;;;;;;13.30;5.03;;;;;;;16.69;59.13;99262.66;7046660;28;20591;-81
2023/10/10 01:37:55;;;;;;;14.30;5.60;;;;;;;16.94;57.91;99240.69;7038622;28;20597;-81
2023/10/10 01:41:23;;;;;;;13.03;5.40;;;;;;;16.43;58.36;99172.38;7034622;27;20214;-81
2023/10/10 01:44:45;;;;;;;9.67;5.37;;;;;;;16.83;58.39;99252.38;7044791;28;20275;-82
2023/10/10 01:48:08;;;;;;;15.63;5.80;;;;;;;16.75;58.35;99253.53;7032562;28;20232;-82
2023/10/10 01:51:33;;;;;;;15.13;5.37;;;;;;;16.57;58.77;99242.72;7046623;28;20297;-82
2023/10/10 01:54:56;;;;;;;10.20;4.83;;;;;;;16.68;58.67;99257.47;7044971;28;20240;-82
2023/10/10 01:58:20;;;;;;;9.47;5.43;;;;;;;16.53;58.66;99254.31;7037463;28;20681;-82
2023/10/10 02:01:42;;;;;;;16.10;5.97;;;;;;;16.42;58.73;99245.06;7035226;28;20598;-82
2023/10/10 02:05:04;;;;;;;12.30;5.10;;;;;;;16.54;57.66;99245.09;7046913;28;20715;-82
2023/10/10 02:08:26;;;;;;;15.33;5.10;;;;;;;16.42;58.97;99245.06;7042412;28;20211;-82
2023/10/10 02:11:53;;;;;;;11.27;5.73;;;;;;;16.28;59.33;99253.63;7044153;28;20210;-81
2023/10/10 02:15:18;;;;;;;10.97;5.20;;;;;;;15.86;59.05;99206.47;7036644;28;20222;-80
2023/10/10 02:18:44;;;;;;;13.13;5.30;;;;;;;16.23;58.63;99259.72;7036650;28;20232;-82
2023/10/10 02:22:19;;;;;;;14.43;5.07;;;;;;;15.93;59.30;99253.44;7044847;28;20247;-81
2023/10/10 02:25:46;;;;;;;13.27;5.00;;;;;;;16.13;59.29;99254.03;7041355;28;20225;-81
2023/10/10 02:29:19;;;;;;;13.17;6.20;;;;;;;16.19;58.86;99257.69;7039368;28;20751;-81
2023/10/10 02:32:41;;;;;;;8.83;5.30;;;;;;;16.22;58.26;99249.09;7043816;28;20929;-81
2023/10/10 02:36:07;;;;;;;12.33;5.10;;;;;;;16.15;58.66;99253.81;7030534;28;20695;-82
2023/10/10 02:39:30;;;;;;;11.20;4.97;;;;;;;16.31;58.41;99261.31;7040721;28;20660;-82
2023/10/10 02:43:33;;;;;;;10.47;5.27;;;;;;;16.21;58.39;99261.03;7043021;28;20213;-82
2023/10/10 02:46:37;;;;;;;11.93;5.03;;;;;;;15.89;58.92;99213.34;7042422;28;20233;-82
2023/10/10 02:50:09;;;;;;;14.83;6.53;;;;;;;16.38;58.37;99260.19;7035916;28;20210;-81
2023/10/10 02:53:32;;;;;;;12.97;5.50;;;;;;;16.29;58.47;99268.88;7041776;28;20655;-82
2023/10/10 02:56:56;;;;;;;13.07;5.47;;;;;;;16.58;57.48;99266.16;7037142;28;20231;-82
2023/10/10 03:00:28;;;;;;;15.67;5.00;;;;;;;16.03;58.08;99269.22;7042884;28;20254;-82
2023/10/10 03:03:54;;;;;;;11.07;5.27;;;;;;;16.07;58.05;99267.69;7046550;28;20283;-82
2023/10/10 03:07:21;;;;;;;10.23;4.87;;;;;;;15.90;58.69;99253.91;7046963;28;20197;-81
2023/10/10 03:10:46;;;;;;;19.10;5.70;;;;;;;16.28;57.79;99245.44;7045964;28;20215;-81
2023/10/10 03:14:08;;;;;;;11.47;5.50;;;;;;;16.23;56.92;99248.03;7036338;28;20248;-83
2023/10/10 03:17:43;;;;;;;8.83;5.77;;;;;;;15.93;57.72;99247.19;7039925;28;20227;-83
2023/10/10 03:21:18;;;;;;;10.57;5.03;;;;;;;15.74;58.04;99216.44;7039755;28;20213;-81
2023/10/10 03:25:03;;;;;;;11.33;5.30;;;;;;;15.52;59.01;99225.31;7044907;28;20222;-83
2023/10/10 03:28:30;;;;;;;10.43;5.07;;;;;;;15.65;59.35;99239.56;7042504;28;20209;-82
2023/10/10 03:32:18;;;;;;;13.93;5.37;;;;;;;15.77;58.55;99235.03;7029923;28;20199;-82
2023/10/10 03:39:24;;;;;;;10.83;5.40;;;;;;;15.45;58.32;99254.44;7038640;28;20213;-83
2023/10/10 05:25:22;;;;;;;16.53;6.40;;;;;;;15.06;59.36;99243.91;7041064;28;20220;-84
2023/10/10 05:28:46;;;;;;;14.63;6.87;;;;;;;15.11;59.47;99260.38;7040627;28;20201;-84
2023/10/10 05:32:08;;;;;;;11.70;6.43;;;;;;;15.07;58.98;99242.84;7042724;28;20572;-84
2023/10/10 05:35:29;;;;;;;9.70;6.30;;;;;;;15.04;58.80;99248.75;7053874;28;20672;-83
2023/10/10 05:38:51;;;;;;;12.87;7.13;;;;;;;15.09;59.13;99257.88;7047928;28;20288;-86
2023/10/10 05:42:13;;;;;;;12.60;5.87;;;;;;;15.45;57.95;99233.50;7041258;28;20294;-84
2023/10/10 05:45:36;;;;;;;14.03;6.20;;;;;;;15.62;58.33;99267.19;7047447;28;20238;-85
2023/10/10 05:48:59;;;;;;;15.00;6.63;;;;;;;15.55;58.43;99265.59;7056589;28;20232;-82
2023/10/10 05:52:21;;;;;;;11.67;6.57;;;;;;;15.20;58.54;99286.19;7045294;28;20208;-82
2023/10/10 05:55:43;;;;;;;16.63;7.10;;;;;;;15.15;59.04;99280.63;7046774;28;20288;-83
2023/10/10 05:59:08;;;;;;;14.23;6.97;;;;;;;15.36;58.82;99285.66;7039735;28;20209;-83
2023/10/10 06:02:31;;;;;;;13.03;6.67;;;;;;;15.47;58.63;99283.06;7048040;28;20212;-83
2023/10/10 06:05:56;;;;;;;19.67;7.20;;;;;;;15.38;58.93;99289.81;7045510;28;20750;-83
2023/10/10 06:09:19;;;;;;;12.60;7.23;;;;;;;15.24;59.16;99276.56;7037208;28;20221;-84
2023/10/10 06:12:41;;;;;;;16.20;6.73;;;;;;;15.42;59.21;99293.75;7053720;28;20652;-83
2023/10/10 06:16:07;;;;;;;16.10;6.43;;;;;;;15.47;59.23;99299.34;7054611;28;20228;-84
2023/10/10 06:19:29;;;;;;;17.50;5.97;;;;;;;15.31;59.32;99293.63;7049931;28;20602;-84
2023/10/10 06:22:54;;;;;;;15.60;6.23;;;;;;;15.44;59.06;99297.06;7046133;28;20218;-83
2023/10/10 06:26:21;;;;;;;16.77;6.67;;;;;;;15.62;58.71;99294.38;7052855;28;20229;-83
2023/10/10 06:29:43;;;;;;;14.80;6.70;;;;;;;15.58;58.87;99301.31;7035652;28;20213;-84
2023/10/10 06:33:15;;;;;;;14.77;6.40;;;;;;;15.70;58.79;99298.69;7042913;28;20896;-83
2023/10/10 06:36:38;;;;;;;13.40;6.67;;;;;;;16.06;58.18;99301.41;7044366;28;20244;-84
2023/10/10 06:39:59;;;;;;;15.70;6.67;;;;;;;16.26;56.89;99296.53;7047670;28;20288;-83
2023/10/10 06:43:21;;;;;;;15.63;6.50;;;;;;;16.65;56.57;99296.88;7043666;28;20245;-84
2023/10/10 06:46:42;;;;;;;17.20;7.00;;;;;;;16.63;55.00;99249.16;7054214;28;20257;-83
2023/10/10 06:50:10;;;;;;;14.63;7.57;;;;;;;16.84;54.94;99286.72;7047257;28;20240;-83
2023/10/10 06:53:35;;;;;;;21.00;7.40;;;;;;;16.96;55.50;99303.91;7047052;28;20567;-84
2023/10/10 06:57:05;;;;;;;14.07;6.87;;;;;;;17.47;54.54;99295.97;7050879;28;20236;-82
2023/10/10 07:00:42;;;;;;;15.63;6.67;;;;;;;17.41;54.63;99296.91;7048820;28;20600;-83
2023/10/10 07:04:04;;;;;;;14.20;5.97;;;;;;;17.94;53.48;99289.38;7049073;28;20663;-83
2023/10/10 07:07:26;;;;;;;15.20;6.60;;;;;;;17.50;54.83;99287.28;7046168;28;20211;-83
2023/10/10 07:10:49;;;;;;;14.77;6.30;;;;;;;18.00;54.19;99289.25;7056023;28;20210;-83
2023/10/10 07:14:12;;;;;;;13.37;6.10;;;;;;;17.93;53.69;99260.44;7055699;28;20355;-82
2023/10/10 07:17:38;;;;;;;16.50;6.43;;;;;;;18.49;53.43;99269.53;7045351;28;20238;-82
2023/10/10 07:21:08;;;;;;;12.23;5.77;;;;;;;18.58;53.03;99281.72;7046473;28;20223;-82
2023/10/10 07:24:40;;;;;;;16.60;6.83;;;;;;;19.23;51.67;99285.63;7053530;28;20224;-83
2023/10/10 07:28:05;;;;;;;11.33;6.40;;;;;;;19.36;52.11;99273.53;7051671;28;20208;-84
2023/10/10 07:31:34;;;;;;;11.63;5.90;;;;;;;20.14;50.73;99280.44;7048076;28;20212;-84
2023/10/10 07:34:56;;;;;;;12.57;6.63;;;;;;;20.60;48.81;99285.34;7042854;28;20228;-84
2023/10/10 07:38:17;;;;;;;12.63;6.47;;;;;;;20.33;49.42;99261.78;7035956;28;20288;-84
2023/10/10 07:41:44;;;;;;;13.43;5.77;;;;;;;20.52;49.47;99274.03;7042348;28;20292;-82
2023/10/10 07:45:14;;;;;;;13.93;7.43;;;;;;;20.40;49.56;99235.00;7039880;28;20229;-81
2023/10/10 07:48:46;;;;;;;19.77;6.90;;;;;;;20.53;49.51;99262.81;7037018;28;21015;-83
2023/10/10 07:52:16;;;;;;;14.17;7.37;;;;;;;20.72;49.59;99274.22;7042113;28;20201;-84
2023/10/10 07:55:52;;;;;;;17.07;7.20;;;;;;;21.01;48.68;99279.22;7043991;28;20264;-83
2023/10/10 07:59:16;;;;;;;14.83;6.70;;;;;;;21.51;49.16;99282.34;7035089;28;20197;-86
2023/10/10 08:02:39;;;;;;;11.23;6.53;;;;;;;22.11;46.90;99272.59;7043581;28;20216;-83
2023/10/10 08:06:01;;;;;;;15.03;7.13;;;;;;;22.09;47.52;99277.53;7049717;27;20252;-88
2023/10/10 08:09:23;;;;;;;16.67;6.87;;;;;;;22.42;46.22;99279.03;7047498;28;20750;-83
2023/10/10 08:12:44;;;;;;;12.07;6.10;;;;;;;22.62;46.28;99287.38;7049626;28;20207;-86
2023/10/10 08:16:06;;;;;;;13.33;6.27;;;;;;;22.38;47.78;99302.66;7047233;28;20706;-84
2023/10/10 08:19:33;;;;;;;16.50;6.70;;;;;;;22.17;48.10;99304.47;7052307;28;20225;-85
2023/10/10 08:22:59;;;;;;;14.67;6.10;;;;;;;22.81;46.50;99305.00;7053316;28;20337;-86
2023/10/10 08:26:26;;;;;;;12.67;6.37;;;;;;;22.92;46.52;99302.00;7061618;28;20225;-85
2023/10/10 08:29:49;;;;;;;10.17;6.00;;;;;;;23.21;45.57;99299.59;7044570;28;20205;-85
2023/10/10 08:33:11;;;;;;;13.93;6.50;;;;;;;23.51;44.48;99313.34;7037454;28;20199;-84
2023/10/10 08:36:34;;;;;;;13.57;6.23;;;;;;;23.75;44.04;99309.75;7044121;28;20707;-82
2023/10/10 08:39:55;;;;;;;14.33;6.73;;;;;;;23.82;43.77;99299.28;7032902;28;20683;-84
2023/10/10 08:43:18;;;;;;;12.83;6.60;;;;;;;24.22;43.64;99303.88;7035767;28;20310;-84
2023/10/10 08:46:46;;;;;;;12.53;6.50;;;;;;;24.21;43.55;99303.06;7036701;28;20235;-84
2023/10/10 08:50:09;;;;;;;13.67;5.63;;;;;;;24.45;41.95;99257.19;7051376;28;20353;-84
2023/10/10 08:53:35;;;;;;;14.37;5.57;;;;;;;24.83;42.11;99288.72;7056098;28;20205;-83
2023/10/10 08:57:03;;;;;;;15.67;6.30;;;;;;;24.41;42.37;99208.41;7040178;28;20221;-85
2023/10/10 09:00:27;;;;;;;16.03;6.40;;;;;;;24.62;42.93;99265.97;7028470;28;20195;-83
2023/10/10 09:03:48;;;;;;;16.00;5.83;;;;;;;25.09;41.81;99281.91;7052935;28;20284;-83
2023/10/10 09:07:19;;;;;;;12.83;5.93;;;;;;;25.28;40.85;99280.13;7067313;28;20185;-83
2023/10/10 09:10:44;;;;;;;11.23;5.77;;;;;;;25.74;40.07;99259.25;7074723;28;20488;-85
2023/10/10 09:14:09;;;;;;;14.93;4.50;;;;;;;25.85;39.65;99272.69;7045521;28;20249;-84
2023/10/10 09:17:35;;;;;;;16.87;5.33;;;;;;;26.53;38.24;99274.09;7046289;28;20348;-84
2023/10/10 09:21:18;;;;;;;11.60;4.90;;;;;;;26.48;37.85;99268.63;7049735;28;20223;-83
2023/10/10 09:24:41;;;;;;;13.17;5.87;;;;;;;26.70;38.00;99265.31;7046320;28;20235;-83
2023/10/10 09:28:05;;;;;;;19.00;5.90;;;;;;;26.71;38.49;99261.44;7036780;28;20233;-83
2023/10/10 09:31:31;;;;;;;13.33;5.83;;;;;;;27.23;38.42;99275.88;7045498;28;20575;-84
2023/10/10 09:34:54;;;;;;;18.77;5.83;;;;;;;26.99;38.64;99264.06;7036272;28;20457;-85
2023/10/10 09:38:19;;;;;;;11.70;5.37;;;;;;;26.97;37.75;99269.06;7038035;28;20226;-84
2023/10/10 09:42:00;;;;;;;12.80;5.80;;;;;;;27.14;37.61;99257.44;7036371;28;20249;-85
2023/10/10 09:45:35;;;;;;;15.60;5.13;;;;;;;27.46;36.23;99258.31;7043968;28;20221;-86
2023/10/10 09:49:17;;;;;;;15.20;5.53;;;;;;;27.44;36.24;99230.09;7044613;28;20192;-86
2023/10/10 09:52:50;;;;;;;11.57;5.50;;;;;;;27.73;36.11;99263.09;7056501;28;20192;-86
2023/10/10 09:56:13;;;;;;;13.67;5.50;;;;;;;27.24;35.89;99188.09;7049449;28;20771;-84
2023/10/10 09:59:37;;;;;;;15.27;5.17;;;;;;;28.32;34.45;99274.16;7046611;28;20616;-86
2023/10/10 10:03:25;;;;;;;10.80;4.47;;;;;;;28.19;35.68;99263.91;7055207;28;20231;-82
2023/10/10 10:06:55;;;;;;;15.30;6.10;;;;;;;28.45;34.99;99253.94;7044287;28;20220;-83
2023/10/10 10:10:33;;;;;;;10.07;5.33;;;;;;;28.80;34.01;99278.13;7039705;28;20274;-85
2023/10/10 10:14:11;;;;;;;12.13;4.73;;;;;;;28.62;34.79;99268.81;7044464;28;20201;-84
2023/10/10 10:17:47;;;;;;;15.43;5.70;;;;;;;28.76;34.51;99249.34;7046070;28;20248;-82
2023/10/10 10:21:18;;;;;;;12.40;5.57;;;;;;;29.10;33.31;99274.66;7039574;28;20292;-81
2023/10/10 10:25:20;;;;;;;14.63;5.30;;;;;;;28.68;34.46;99266.75;7042998;28;20310;-83
2023/10/10 10:28:43;;;;;;;13.83;6.27;;;;;;;27.99;34.90;99261.50;7051214;28;20201;-83
2023/10/10 10:32:07;;;;;;;10.27;5.07;;;;;;;28.48;34.84;99265.22;7043431;28;20282;-82
2023/10/10 10:36:14;;;;;;;16.17;5.40;;;;;;;28.35;33.47;99252.16;7050576;28;20248;-83
2023/10/10 10:39:37;;;;;;;13.70;5.77;;;;;;;28.52;33.50;99259.88;7058643;28;20197;-83
2023/10/10 10:43:03;;;;;;;20.17;6.00;;;;;;;28.19;34.24;99248.06;7043239;28;20213;-82
2023/10/10 10:46:39;;;;;;;10.47;5.13;;;;;;;28.80;33.75;99267.03;7036837;28;20216;-82
2023/10/10 10:50:02;;;;;;;12.50;5.20;;;;;;;28.60;33.36;99262.75;7047071;28;20279;-82
2023/10/10 10:53:35;;;;;;;13.80;5.80;;;;;;;28.94;33.83;99251.97;7058828;28;20210;-81
2023/10/10 10:57:01;;;;;;;15.67;5.07;;;;;;;29.10;32.78;99255.22;7043487;28;20229;-82
2023/10/10 11:00:42;;;;;;;13.07;5.27;;;;;;;29.01;30.88;99205.16;7050050;28;20234;-82
2023/10/10 11:04:05;;;;;;;11.93;5.27;;;;;;;29.38;29.60;99243.66;7042777;28;20201;-82
2023/10/10 11:07:32;;;;;;;13.47;4.97;;;;;;;29.56;30.26;99239.91;7052382;28;20201;-82
2023/10/10 11:10:54;;;;;;;12.00;5.83;;;;;;;29.48;30.23;99246.19;7053672;28;20217;-82
2023/10/10 11:14:19;;;;;;;14.23;5.60;;;;;;;28.96;29.84;99238.59;7050415;28;20216;-81
2023/10/10 11:17:42;;;;;;;8.83;5.40;;;;;;;28.93;28.46;99246.72;7043381;28;20626;-81
2023/10/10 11:21:11;;;;;;;8.93;5.43;;;;;;;28.80;28.73;99236.47;7045992;28;20200;-84
2023/10/10 11:24:34;;;;;;;15.70;6.67;;;;;;;28.79;27.74;99229.28;7049349;28;20258;-83
2023/10/10 11:28:03;;;;;;;15.83;6.83;;;;;;;28.55;28.57;99209.31;7055686;28;20599;-82
2023/10/10 11:31:29;;;;;;;24.93;14.47;;;;;;;28.03;27.85;99227.34;7054601;28;20212;-83
2023/10/10 11:34:51;;;;;;;25.57;14.17;;;;;;;28.75;28.13;99218.00;7046384;28;20221;-82
2023/10/10 11:38:28;;;;;;;20.53;12.50;;;;;;;29.53;27.96;99214.69;7055939;28;20300;-83
2023/10/10 11:41:50;;;;;;;21.37;11.80;;;;;;;28.69;28.36;99208.16;7057922;28;20299;-83
2023/10/10 11:45:17;;;;;;;17.47;8.57;;;;;;;29.13;28.47;99172.09;7045585;28;20244;-83
2023/10/10 11:48:43;;;;;;;14.83;8.60;;;;;;;29.92;27.86;99210.00;7047737;28;20216;-84
2023/10/10 11:52:05;;;;;;;12.47;6.67;;;;;;;29.64;26.25;99105.72;7033759;28;20205;-83
2023/10/10 11:55:27;;;;;;;10.23;6.10;;;;;;;30.04;25.59;99181.56;7046628;28;20221;-83
2023/10/10 11:58:49;;;;;;;10.90;6.63;;;;;;;29.64;25.74;99177.16;7050229;28;20359;-83
2023/10/10 12:02:16;;;;;;;13.93;6.43;;;;;;;30.28;26.96;99185.59;7042873;28;20202;-83
2023/10/10 12:05:48;;;;;;;11.60;6.03;;;;;;;30.03;26.99;99182.72;7047341;28;20230;-83
2023/10/10 12:09:10;;;;;;;13.30;6.63;;;;;;;29.85;26.70;99176.25;7044591;28;20322;-84
2023/10/10 12:12:32;;;;;;;10.60;6.60;;;;;;;30.37;26.35;99168.91;7049940;28;20269;-84
2023/10/10 12:15:55;;;;;;;12.33;6.87;;;;;;;29.98;24.34;99066.06;7051187;28;20218;-85
2023/10/10 12:19:16;;;;;;;11.90;6.30;;;;;;;30.61;24.44;99158.94;7039313;28;20216;-84
2023/10/10 12:22:39;;;;;;;11.73;6.47;;;;;;;30.80;23.59;99162.28;7042953;28;20212;-84
2023/10/10 12:26:01;;;;;;;13.47;7.00;;;;;;;30.71;24.01;99161.44;7053618;28;20368;-85
2023/10/10 12:29:23;;;;;;;10.37;6.43;;;;;;;30.60;21.51;99132.25;7033252;28;20258;-84
2023/10/10 12:32:46;;;;;;;14.63;6.70;;;;;;;30.04;21.02;99149.03;7039481;28;20258;-85
2023/10/10 12:36:09;;;;;;;11.13;7.07;;;;;;;29.55;20.51;99079.84;7054491;27;20269;-85
2023/10/10 12:39:32;;;;;;;12.30;6.63;;;;;;;30.36;20.47;99145.03;7056193;28;20683;-85
2023/10/10 12:42:53;;;;;;;13.67;6.47;;;;;;;29.21;21.80;99139.97;7055775;28;20254;-84
2023/10/10 12:46:17;;;;;;;10.33;6.83;;;;;;;29.57;22.00;99133.16;7048890;27;20218;-85
2023/10/10 12:49:44;;;;;;;13.33;7.43;;;;;;;29.31;22.62;99107.16;7051153;28;20218;-84
2023/10/10 12:53:09;;;;;;;11.23;6.90;;;;;;;29.20;22.96;99135.56;7058500;28;20198;-84
2023/10/10 12:56:38;;;;;;;12.73;7.07;;;;;;;28.19;23.85;99141.88;7041206;28;20229;-85
2023/10/10 13:00:23;;;;;;;12.67;7.17;;;;;;;28.79;23.66;99126.59;7032928;28;20200;-87
2023/10/10 13:03:47;;;;;;;12.97;7.57;;;;;;;28.22;23.24;99116.28;7046776;28;20202;-85
2023/10/10 13:07:08;;;;;;;9.93;6.70;;;;;;;28.63;22.91;99126.16;7040381;28;20235;-86
2023/10/10 13:10:32;;;;;;;11.80;6.40;;;;;;;28.52;23.04;99132.22;7049672;28;20341;-85
2023/10/10 13:13:56;;;;;;;11.77;7.20;;;;;;;28.59;22.81;99129.84;7050619;28;20197;-85
2023/10/10 13:17:29;;;;;;;11.33;6.83;;;;;;;29.00;22.79;99127.72;7034568;28;20218;-85
2023/10/10 13:20:51;;;;;;;15.53;8.27;;;;;;;29.00;21.90;99120.22;7041202;28;20566;-85
2023/10/10 13:24:13;;;;;;;12.70;6.67;;;;;;;29.25;21.83;99115.97;7038935;28;20271;-85
2023/10/10 13:27:35;;;;;;;13.17;7.33;;;;;;;29.84;21.59;99110.66;7042509;28;20551;-85
2023/10/10 13:30:58;;;;;;;13.00;6.13;;;;;;;30.02;21.59;99128.25;7040642;28;20231;-85
2023/10/10 13:34:22;;;;;;;12.17;7.23;;;;;;;30.58;20.74;99115.06;7048646;28;20236;-85
2023/10/10 13:37:43;;;;;;;13.00;6.53;;;;;;;30.41;21.24;99117.84;7054045;28;20286;-86
2023/10/10 13:41:08;;;;;;;11.03;6.50;;;;;;;30.51;22.10;99119.47;7041912;28;20299;-85
2023/10/10 13:44:33;;;;;;;12.23;6.73;;;;;;;30.57;22.36;99113.44;7042709;28;20602;-85
2023/10/10 13:47:59;;;;;;;11.90;6.63;;;;;;;30.37;21.95;99088.22;7038800;28;20213;-86
2023/10/10 13:51:23;;;;;;;11.93;6.73;;;;;;;30.49;21.45;99114.22;7046050;28;20285;-85
2023/10/10 13:54:44;;;;;;;13.50;7.13;;;;;;;30.16;22.03;99109.47;7056763;28;20228;-83
2023/10/10 13:58:07;;;;;;;10.43;6.83;;;;;;;30.54;22.14;99111.28;7051829;27;20261;-83
2023/10/10 14:01:36;;;;;;;14.73;7.20;;;;;;;30.48;22.02;99068.06;7038005;28;20201;-83
2023/10/10 14:05:00;;;;;;;11.17;6.67;;;;;;;30.47;21.78;99104.56;7051698;28;20214;-82
2023/10/10 14:08:22;;;;;;;11.10;7.00;;;;;;;30.09;21.86;99054.34;7037779;28;20263;-83
2023/10/10 14:11:43;;;;;;;10.77;6.90;;;;;;;30.13;23.13;99107.34;7053492;28;20227;-84
2023/10/10 14:15:06;;;;;;;12.40;6.93;;;;;;;29.67;22.31;99104.25;7062379;28;20230;-86
2023/10/10 14:18:28;;;;;;;11.03;7.03;;;;;;;29.52;22.32;99069.34;7064146;28;20229;-84
2023/10/10 14:21:52;;;;;;;15.63;7.60;;;;;;;29.10;23.26;99105.25;7068515;28;20258;-84
2023/10/10 14:25:14;;;;;;;10.77;6.70;;;;;;;29.51;22.64;99097.44;7067433;28;20225;-84
2023/10/10 14:28:35;;;;;;;12.50;6.93;;;;;;;29.55;23.51;99079.03;7033030;28;20524;-84
2023/10/10 14:31:58;;;;;;;15.00;7.47;;;;;;;29.18;23.33;99087.84;7055383;27;20205;-84
2023/10/10 14:35:22;;;;;;;12.63;7.03;;;;;;;29.02;23.31;99092.94;7044574;28;20311;-84
2023/10/10 14:38:45;;;;;;;15.67;7.17;;;;;;;28.69;23.70;99093.53;7044632;28;20678;-83
2023/10/10 14:42:08;;;;;;;12.37;6.87;;;;;;;29.56;25.25;99097.34;7044419;28;20222;-83
2023/10/10 14:45:29;;;;;;;13.43;7.10;;;;;;;29.64;27.94;99089.03;7036677;28;20255;-83
2023/10/10 14:49:00;;;;;;;12.80;7.30;;;;;;;29.94;27.83;99095.63;7045961;28;20208;-83
2023/10/10 14:52:22;;;;;;;13.07;6.83;;;;;;;29.76;28.51;99086.44;7039217;28;20204;-83
2023/10/10 14:55:45;;;;;;;12.73;7.43;;;;;;;29.55;28.75;99082.63;7030041;28;20703;-82
2023/10/10 14:59:10;;;;;;;12.53;6.13;;;;;;;29.51;27.96;99075.22;7038665;28;20318;-84
2023/10/10 15:02:35;;;;;;;11.37;7.03;;;;;;;29.62;28.00;99088.56;7039123;28;20197;-81
2023/10/10 15:06:06;;;;;;;17.70;6.93;;;;;;;29.34;30.75;99091.81;7038447;28;20220;-82
2023/10/10 15:09:27;;;;;;;11.43;6.60;;;;;;;29.16;31.09;99077.03;7043895;28;20582;-86
2023/10/10 15:12:50;;;;;;;16.43;7.17;;;;;;;28.32;31.88;99094.66;7038304;28;20242;-84
2023/10/10 15:16:12;;;;;;;14.53;7.10;;;;;;;28.43;31.32;99085.00;7036589;28;20695;-83
2023/10/10 15:19:33;;;;;;;13.67;7.00;;;;;;;27.61;31.31;99085.44;7046325;28;20261;-83
2023/10/10 15:22:55;;;;;;;12.73;7.37;;;;;;;27.87;30.58;99070.75;7053309;28;20563;-86
2023/10/10 15:26:19;;;;;;;14.00;7.03;;;;;;;27.63;31.46;99039.66;7049276;28;20220;-85
2023/10/10 15:29:43;;;;;;;14.63;6.80;;;;;;;27.98;31.97;99085.22;7052727;28;20236;-88
2023/10/10 15:33:06;;;;;;;12.77;7.13;;;;;;;27.83;31.69;99097.44;7032640;28;20291;-87
2023/10/10 15:36:30;;;;;;;15.80;7.23;;;;;;;27.66;32.14;99093.66;7047107;28;20251;-86
2023/10/10 15:39:53;;;;;;;13.30;7.30;;;;;;;26.87;34.92;99074.66;7035536;28;20205;-87
2023/10/10 15:43:15;;;;;;;15.10;7.07;;;;;;;26.79;35.02;99058.75;7029436;28;20659;-86
2023/10/10 15:46:38;;;;;;;12.73;7.13;;;;;;;27.08;34.93;99092.56;7033491;28;20315;-85
2023/10/10 15:50:00;;;;;;;15.40;7.23;;;;;;;26.42;35.85;99114.13;7026082;28;20215;-86
2023/10/10 15:53:23;;;;;;;13.03;7.13;;;;;;;26.38;35.43;99102.03;7037474;28;20204;-86
2023/10/10 15:56:47;;;;;;;10.93;6.13;;;;;;;26.53;35.84;99102.59;7040134;28;20283;-86
2023/10/10 16:00:15;;;;;;;13.13;6.97;;;;;;;26.40;35.97;99110.84;7024354;28;20515;-86
2023/10/10 16:03:38;;;;;;;15.80;7.80;;;;;;;26.41;36.72;99101.41;7024461;28;20187;-86
2023/10/10 16:07:01;;;;;;;18.63;7.77;;;;;;;25.93;37.04;99039.97;7030828;28;20213;-84
2023/10/10 16:10:23;;;;;;;15.20;7.07;;;;;;;26.02;37.95;99110.00;7032013;28;20205;-86
2023/10/10 16:13:46;;;;;;;17.40;7.27;;;;;;;25.79;38.98;99107.28;7040944;28;20233;-86
2023/10/10 16:17:08;;;;;;;16.47;7.67;;;;;;;25.64;39.44;99119.34;7040329;28;20695;-85
2023/10/10 16:20:35;;;;;;;16.87;7.53;;;;;;;25.34;39.53;99114.16;7032247;28;20303;-84
2023/10/10 16:23:56;;;;;;;12.77;7.40;;;;;;;24.16;42.45;99123.13;7041512;28;20220;-84
2023/10/10 16:27:18;;;;;;;13.63;7.13;;;;;;;24.45;41.99;99121.28;7032723;28;20701;-82
2023/10/10 16:30:39;;;;;;;17.17;8.07;;;;;;;23.98;42.14;99053.00;7050299;28;20237;-85
2023/10/10 16:34:02;;;;;;;15.33;7.13;;;;;;;24.36;42.26;99123.00;7044485;28;20241;-85
2023/10/10 16:37:25;;;;;;;13.43;6.70;;;;;;;24.22;42.44;99133.84;7047395;27;20280;-84
2023/10/10 16:40:49;;;;;;;15.37;7.03;;;;;;;24.16;42.93;99123.97;7039533;28;20622;-85
2023/10/10 16:44:14;;;;;;;14.17;6.90;;;;;;;23.62;43.85;99111.25;7046810;28;20201;-85
2023/10/10 16:47:36;;;;;;;14.43;7.07;;;;;;;23.82;43.80;99135.94;7046196;28;20197;-86
2023/10/10 16:51:01;;;;;;;18.27;7.37;;;;;;;23.58;44.63;99141.28;7043814;28;20688;-82
2023/10/10 16:54:24;;;;;;;11.37;7.23;;;;;;;23.32;45.26;99128.72;7034685;28;20324;-84
2023/10/10 16:57:47;;;;;;;12.07;7.50;;;;;;;22.52;47.35;99137.00;7048896;28;20680;-84
2023/10/10 17:01:12;;;;;;;17.13;8.13;;;;;;;22.97;46.81;99133.41;7047099;27;20295;-84
2023/10/10 17:04:33;;;;;;;15.43;7.60;;;;;;;22.99;46.14;99143.03;7052872;28;20217;-83
2023/10/10 17:07:56;;;;;;;13.83;7.43;;;;;;;23.02;45.74;99134.22;7039914;28;20282;-83
2023/10/10 17:11:20;;;;;;;12.83;7.07;;;;;;;22.57;47.21;99138.91;7040764;27;20205;-83
2023/10/10 17:14:42;;;;;;;16.97;7.30;;;;;;;21.75;48.91;99108.81;7048310;28;20224;-84
2023/10/10 17:18:05;;;;;;;16.43;6.93;;;;;;;22.12;48.35;99141.59;7051930;28;20256;-83
2023/10/10 17:21:27;;;;;;;15.53;7.27;;;;;;;22.16;48.16;99143.50;7055771;28;20197;-83
2023/10/10 17:24:49;;;;;;;14.60;7.50;;;;;;;22.06;47.91;99143.47;7036584;28;20232;-83
2023/10/10 17:28:12;;;;;;;11.60;6.17;;;;;;;22.23;47.15;99146.81;7045985;28;20397;-83
2023/10/10 17:31:36;;;;;;;18.47;7.23;;;;;;;21.92;47.84;99130.53;7044168;28;20208;-83
2023/10/10 17:35:02;;;;;;;14.77;7.03;;;;;;;20.67;51.37;99119.63;7040421;28;20646;-84
2023/10/10 17:38:24;;;;;;;12.30;7.53;;;;;;;21.17;49.73;99139.22;7048535;28;20259;-84
2023/10/10 17:41:48;;;;;;;14.57;7.53;;;;;;;21.27;49.26;99144.78;7032877;28;20295;-84